sensor_id;sensor_type;location;lat;lon;timestamp;pressure;altitude;pressure_sealevel;temperature;humidity
3444;BME280;1736;52.068;6.968;2022-12-18T00:02:00;102368.38;;;-7.31;100.00
3444;BME280;1736;52.068;6.968;2022-12-18T00:04:27;102385.59;;;-7.29;100.00
3444;BME280;1736;52.068;6.968;2022-12-18T00:06:55;102384.78;;;-7.28;100.00
3444;BME280;1736;52.068;6.968;2022-12-18T00:09:22;102380.41;;;-7.30;100.00
3444;BME280;1736;52.068;6.968;2022-12-18T00:11:49;102387.22;;;-7.35;100.00
3444;BME280;1736;52.068;6.968;2022-12-18T00:14:16;102394.09;;;-7.34;100.00
3444;BME280;1736;52.068;6.968;2022-12-18T00:16:44;102392.31;;;-7.40;100.00
3444;BME280;1736;52.068;6.968;2022-12-18T00:19:11;102376.88;;;-7.38;100.00
3444;BME280;1736;52.068;6.968;2022-12-18T00:21:37;102375.13;;;-7.39;100.00
3444;BME280;1736;52.068;6.968;2022-12-18T00:24:06;102383.00;;;-7.30;100.00
3444;BME280;1736;52.068;6.968;2022-12-18T00:26:34;102378.63;;;-7.34;100.00
3444;BME280;1736;52.068;6.968;2022-12-18T00:29:03;102379.47;;;-7.38;100.00
3444;BME280;1736;52.068;6.968;2022-12-18T00:31:30;102375.09;;;-7.42;100.00
3444;BME280;1736;52.068;6.968;2022-12-18T00:33:57;102375.88;;;-7.48;100.00
3444;BME280;1736;52.068;6.968;2022-12-18T00:36:25;102379.25;;;-7.49;100.00
3444;BME280;1736;52.068;6.968;2022-12-18T00:38:53;102381.00;;;-7.49;100.00
3444;BME280;1736;52.068;6.968;2022-12-18T00:41:22;102389.56;;;-7.50;100.00
3444;BME280;1736;52.068;6.968;2022-12-18T00:44:07;102386.88;;;-7.56;100.00
3444;BME280;1736;52.068;6.968;2022-12-18T00:46:35;102391.19;;;-7.55;100.00
3444;BME280;1736;52.068;6.968;2022-12-18T00:49:02;102388.53;;;-7.61;100.00
3444;BME280;1736;52.068;6.968;2022-12-18T00:51:29;102380.78;;;-7.61;100.00
3444;BME280;1736;52.068;6.968;2022-12-18T00:53:55;102382.44;;;-7.65;100.00
3444;BME280;1736;52.068;6.968;2022-12-18T00:56:23;102373.91;;;-7.61;100.00
3444;BME280;1736;52.068;6.968;2022-12-18T00:58:50;102382.50;;;-7.60;100.00
3444;BME280;1736;52.068;6.968;2022-12-18T01:01:17;102380.66;;;-7.67;100.00
3444;BME280;1736;52.068;6.968;2022-12-18T01:03:44;102380.63;;;-7.70;100.00
3444;BME280;1736;52.068;6.968;2022-12-18T01:06:13;102379.75;;;-7.71;100.00
3444;BME280;1736;52.068;6.968;2022-12-18T01:08:40;102387.41;;;-7.75;100.00
3444;BME280;1736;52.068;6.968;2022-12-18T01:11:08;102386.63;;;-7.73;100.00
3444;BME280;1736;52.068;6.968;2022-12-18T01:13:36;102385.09;;;-7.60;100.00
3444;BME280;1736;52.068;6.968;2022-12-18T01:16:03;102385.81;;;-7.69;100.00
3444;BME280;1736;52.068;6.968;2022-12-18T01:18:29;102391.78;;;-7.73;100.00
3444;BME280;1736;52.068;6.968;2022-12-18T01:20:56;102388.25;;;-7.76;100.00
3444;BME280;1736;52.068;6.968;2022-12-18T01:23:22;102382.25;;;-7.77;100.00
3444;BME280;1736;52.068;6.968;2022-12-18T01:25:49;102373.59;;;-7.79;100.00
3444;BME280;1736;52.068;6.968;2022-12-18T01:28:15;102370.28;;;-7.73;100.00
3444;BME280;1736;52.068;6.968;2022-12-18T01:30:43;102364.28;;;-7.72;100.00
3444;BME280;1736;52.068;6.968;2022-12-18T01:33:10;102367.69;;;-7.73;100.00
3444;BME280;1736;52.068;6.968;2022-12-18T01:35:40;102366.69;;;-7.81;100.00
3444;BME280;1736;52.068;6.968;2022-12-18T01:38:07;102380.34;;;-7.87;100.00
3444;BME280;1736;52.068;6.968;2022-12-18T01:40:34;102387.19;;;-7.87;100.00
3444;BME280;1736;52.068;6.968;2022-12-18T01:43:00;102389.72;;;-7.90;100.00
3444;BME280;1736;52.068;6.968;2022-12-18T01:45:28;102394.03;;;-7.89;100.00
3444;BME280;1736;52.068;6.968;2022-12-18T01:47:58;102390.56;;;-7.93;100.00
3444;BME280;1736;52.068;6.968;2022-12-18T01:50:29;102393.97;;;-7.92;100.00
3444;BME280;1736;52.068;6.968;2022-12-18T01:53:00;102391.47;;;-7.89;100.00
3444;BME280;1736;52.068;6.968;2022-12-18T01:55:30;102381.25;;;-7.83;100.00
3444;BME280;1736;52.068;6.968;2022-12-18T01:58:00;102368.50;;;-7.76;100.00
3444;BME280;1736;52.068;6.968;2022-12-18T02:00:27;102359.06;;;-7.75;100.00
3444;BME280;1736;52.068;6.968;2022-12-18T02:02:56;102372.06;;;-7.69;100.00
3444;BME280;1736;52.068;6.968;2022-12-18T02:05:29;102373.13;;;-7.55;100.00
3444;BME280;1736;52.068;6.968;2022-12-18T02:08:05;102372.31;;;-7.53;100.00
3444;BME280;1736;52.068;6.968;2022-12-18T02:10:41;102358.44;;;-7.61;100.00
3444;BME280;1736;52.068;6.968;2022-12-18T02:13:13;102358.50;;;-7.58;100.00
3444;BME280;1736;52.068;6.968;2022-12-18T02:15:44;102370.53;;;-7.57;100.00
3444;BME280;1736;52.068;6.968;2022-12-18T02:18:20;102372.16;;;-7.63;100.00
3444;BME280;1736;52.068;6.968;2022-12-18T02:20:52;102356.66;;;-7.65;100.00
3444;BME280;1736;52.068;6.968;2022-12-18T02:23:33;102367.81;;;-7.66;100.00
3444;BME280;1736;52.068;6.968;2022-12-18T02:26:15;102374.63;;;-7.69;100.00
3444;BME280;1736;52.068;6.968;2022-12-18T02:28:46;102368.56;;;-7.71;100.00
3444;BME280;1736;52.068;6.968;2022-12-18T02:31:18;102367.63;;;-7.76;100.00
3444;BME280;1736;52.068;6.968;2022-12-18T02:33:49;102364.22;;;-7.75;100.00
3444;BME280;1736;52.068;6.968;2022-12-18T02:36:18;102372.81;;;-7.75;100.00
3444;BME280;1736;52.068;6.968;2022-12-18T02:38:46;102368.59;;;-7.70;100.00
3444;BME280;1736;52.068;6.968;2022-12-18T02:41:16;102361.06;;;-7.58;100.00
3444;BME280;1736;52.068;6.968;2022-12-18T02:43:47;102358.44;;;-7.62;100.00
3444;BME280;1736;52.068;6.968;2022-12-18T02:46:26;102357.66;;;-7.55;100.00
3444;BME280;1736;52.068;6.968;2022-12-18T02:48:59;102354.09;;;-7.63;100.00
3444;BME280;1736;52.068;6.968;2022-12-18T02:51:32;102349.00;;;-7.60;100.00
3444;BME280;1736;52.068;6.968;2022-12-18T02:54:09;102352.44;;;-7.61;100.00
3444;BME280;1736;52.068;6.968;2022-12-18T02:56:43;102351.59;;;-7.60;100.00
3444;BME280;1736;52.068;6.968;2022-12-18T02:59:14;102359.31;;;-7.60;100.00
3444;BME280;1736;52.068;6.968;2022-12-18T03:01:46;102367.97;;;-7.58;100.00
3444;BME280;1736;52.068;6.968;2022-12-18T03:04:20;102361.91;;;-7.60;100.00
3444;BME280;1736;52.068;6.968;2022-12-18T03:06:50;102361.03;;;-7.59;100.00
3444;BME280;1736;52.068;6.968;2022-12-18T03:09:21;102360.13;;;-7.63;100.00
3444;BME280;1736;52.068;6.968;2022-12-18T03:11:55;102364.41;;;-7.63;100.00
3444;BME280;1736;52.068;6.968;2022-12-18T03:14:41;102355.72;;;-7.70;100.00
3444;BME280;1736;52.068;6.968;2022-12-18T03:17:13;102360.81;;;-7.74;100.00
3444;BME280;1736;52.068;6.968;2022-12-18T03:19:43;102360.75;;;-7.77;100.00
3444;BME280;1736;52.068;6.968;2022-12-18T03:22:13;102362.41;;;-7.79;100.00
3444;BME280;1736;52.068;6.968;2022-12-18T03:24:41;102354.72;;;-7.78;100.00
3444;BME280;1736;52.068;6.968;2022-12-18T03:27:12;102365.91;;;-7.77;100.00
3444;BME280;1736;52.068;6.968;2022-12-18T03:29:44;102351.31;;;-7.75;100.00
3444;BME280;1736;52.068;6.968;2022-12-18T03:32:18;102353.03;;;-7.77;100.00
3444;BME280;1736;52.068;6.968;2022-12-18T03:34:48;102359.13;;;-7.72;100.00
3444;BME280;1736;52.068;6.968;2022-12-18T03:37:18;102358.31;;;-7.68;100.00
3444;BME280;1736;52.068;6.968;2022-12-18T03:39:48;102352.97;;;-7.80;100.00
3444;BME280;1736;52.068;6.968;2022-12-18T03:42:22;102364.06;;;-7.84;100.00
3444;BME280;1736;52.068;6.968;2022-12-18T03:44:57;102367.38;;;-7.91;100.00
3444;BME280;1736;52.068;6.968;2022-12-18T03:47:33;102368.13;;;-7.98;100.00
3444;BME280;1736;52.068;6.968;2022-12-18T03:50:10;102361.22;;;-7.99;100.00
3444;BME280;1736;52.068;6.968;2022-12-18T03:52:47;102353.44;;;-8.02;100.00
3444;BME280;1736;52.068;6.968;2022-12-18T03:55:16;102349.09;;;-8.06;100.00
3444;BME280;1736;52.068;6.968;2022-12-18T03:57:45;102339.56;;;-8.10;100.00
3444;BME280;1736;52.068;6.968;2022-12-18T04:00:15;102337.84;;;-8.10;100.00
3444;BME280;1736;52.068;6.968;2022-12-18T04:02:47;102332.66;;;-8.13;100.00
3444;BME280;1736;52.068;6.968;2022-12-18T04:05:15;102337.84;;;-8.11;100.00
3444;BME280;1736;52.068;6.968;2022-12-18T04:07:45;102332.72;;;-8.08;100.00
3444;BME280;1736;52.068;6.968;2022-12-18T04:10:14;102330.22;;;-8.04;100.00
3444;BME280;1736;52.068;6.968;2022-12-18T04:12:42;102322.56;;;-7.99;100.00
3444;BME280;1736;52.068;6.968;2022-12-18T04:15:10;102334.72;;;-7.92;100.00
3444;BME280;1736;52.068;6.968;2022-12-18T04:17:38;102333.06;;;-7.90;100.00
3444;BME280;1736;52.068;6.968;2022-12-18T04:20:05;102326.19;;;-7.88;100.00
3444;BME280;1736;52.068;6.968;2022-12-18T04:22:32;102333.13;;;-7.84;100.00
3444;BME280;1736;52.068;6.968;2022-12-18T04:24:58;102332.38;;;-7.79;100.00
3444;BME280;1736;52.068;6.968;2022-12-18T04:27:25;102327.28;;;-7.76;100.00
3444;BME280;1736;52.068;6.968;2022-12-18T04:29:51;102331.56;;;-7.76;100.00
3444;BME280;1736;52.068;6.968;2022-12-18T04:32:19;102323.03;;;-7.72;100.00
3444;BME280;1736;52.068;6.968;2022-12-18T04:34:46;102323.09;;;-7.69;100.00
3444;BME280;1736;52.068;6.968;2022-12-18T04:37:12;102329.97;;;-7.68;100.00
3444;BME280;1736;52.068;6.968;2022-12-18T04:39:39;102325.66;;;-7.69;100.00
3444;BME280;1736;52.068;6.968;2022-12-18T04:42:06;102324.75;;;-7.71;100.00
3444;BME280;1736;52.068;6.968;2022-12-18T04:44:32;102333.28;;;-7.75;100.00
3444;BME280;1736;52.068;6.968;2022-12-18T04:46:59;102330.78;;;-7.71;100.00
3444;BME280;1736;52.068;6.968;2022-12-18T04:49:31;102319.59;;;-7.74;100.00
3444;BME280;1736;52.068;6.968;2022-12-18T04:51:58;102323.75;;;-7.79;100.00
3444;BME280;1736;52.068;6.968;2022-12-18T04:54:24;102321.22;;;-7.78;100.00
3444;BME280;1736;52.068;6.968;2022-12-18T04:56:51;102322.94;;;-7.78;100.00
3444;BME280;1736;52.068;6.968;2022-12-18T04:59:17;102312.66;;;-7.78;100.00
3444;BME280;1736;52.068;6.968;2022-12-18T05:01:44;102311.78;;;-7.77;100.00
3444;BME280;1736;52.068;6.968;2022-12-18T05:04:11;102312.81;;;-7.68;100.00
3444;BME280;1736;52.068;6.968;2022-12-18T05:06:38;102309.53;;;-7.56;100.00
3444;BME280;1736;52.068;6.968;2022-12-18T05:09:06;102312.41;;;-7.38;100.00
3444;BME280;1736;52.068;6.968;2022-12-18T05:11:32;102306.59;;;-7.25;100.00
3444;BME280;1736;52.068;6.968;2022-12-18T05:13:59;102313.47;;;-7.24;100.00
3444;BME280;1736;52.068;6.968;2022-12-18T05:16:26;102312.69;;;-7.19;100.00
3444;BME280;1736;52.068;6.968;2022-12-18T05:18:52;102316.13;;;-7.17;100.00
3444;BME280;1736;52.068;6.968;2022-12-18T05:21:19;102322.19;;;-7.16;100.00
3444;BME280;1736;52.068;6.968;2022-12-18T05:23:46;102311.84;;;-7.16;100.00
3444;BME280;1736;52.068;6.968;2022-12-18T05:26:15;102317.13;;;-7.07;100.00
3444;BME280;1736;52.068;6.968;2022-12-18T05:28:42;102308.69;;;-6.97;100.00
3444;BME280;1736;52.068;6.968;2022-12-18T05:31:12;102319.94;;;-6.91;100.00
3444;BME280;1736;52.068;6.968;2022-12-18T05:33:39;102314.88;;;-6.83;100.00
3444;BME280;1736;52.068;6.968;2022-12-18T05:36:07;102315.84;;;-6.75;100.00
3444;BME280;1736;52.068;6.968;2022-12-18T05:38:36;102315.75;;;-6.83;100.00
3444;BME280;1736;52.068;6.968;2022-12-18T05:41:05;102327.81;;;-6.80;100.00
3444;BME280;1736;52.068;6.968;2022-12-18T05:43:34;102326.00;;;-6.87;100.00
3444;BME280;1736;52.068;6.968;2022-12-18T05:46:03;102323.66;;;-6.71;100.00
3444;BME280;1736;52.068;6.968;2022-12-18T05:48:30;102322.66;;;-6.80;100.00
3444;BME280;1736;52.068;6.968;2022-12-18T05:51:03;102337.22;;;-6.84;100.00
3444;BME280;1736;52.068;6.968;2022-12-18T05:53:29;102334.66;;;-6.82;100.00
3444;BME280;1736;52.068;6.968;2022-12-18T05:56:00;102334.75;;;-6.76;100.00
3444;BME280;1736;52.068;6.968;2022-12-18T05:58:31;102343.22;;;-6.86;100.00
3444;BME280;1736;52.068;6.968;2022-12-18T06:01:05;102345.00;;;-6.82;100.00
3444;BME280;1736;52.068;6.968;2022-12-18T06:03:31;102346.66;;;-6.87;100.00
3444;BME280;1736;52.068;6.968;2022-12-18T06:05:58;102354.31;;;-6.95;100.00
3444;BME280;1736;52.068;6.968;2022-12-18T06:08:25;102355.94;;;-7.00;100.00
3444;BME280;1736;52.068;6.968;2022-12-18T06:10:52;102360.13;;;-7.06;100.00
3444;BME280;1736;52.068;6.968;2022-12-18T06:13:18;102354.94;;;-7.11;100.00
3444;BME280;1736;52.068;6.968;2022-12-18T06:15:46;102369.53;;;-7.11;100.00
3444;BME280;1736;52.068;6.968;2022-12-18T06:18:13;102369.59;;;-7.07;100.00
3444;BME280;1736;52.068;6.968;2022-12-18T06:20:39;102368.72;;;-7.07;100.00
3444;BME280;1736;52.068;6.968;2022-12-18T06:23:06;102382.53;;;-7.05;100.00
3444;BME280;1736;52.068;6.968;2022-12-18T06:25:33;102376.56;;;-7.03;100.00
3444;BME280;1736;52.068;6.968;2022-12-18T06:28:00;102378.19;;;-7.09;100.00
3444;BME280;1736;52.068;6.968;2022-12-18T06:30:26;102379.81;;;-7.16;100.00
3444;BME280;1736;52.068;6.968;2022-12-18T06:32:54;102373.81;;;-7.13;100.00
3444;BME280;1736;52.068;6.968;2022-12-18T06:35:21;102372.13;;;-7.11;100.00
3444;BME280;1736;52.068;6.968;2022-12-18T06:37:48;102371.16;;;-7.18;100.00
3444;BME280;1736;52.068;6.968;2022-12-18T06:40:15;102369.41;;;-7.20;100.00
3444;BME280;1736;52.068;6.968;2022-12-18T06:42:41;102378.88;;;-7.19;100.00
3444;BME280;1736;52.068;6.968;2022-12-18T06:45:09;102366.78;;;-7.23;100.00
3444;BME280;1736;52.068;6.968;2022-12-18T06:47:36;102371.03;;;-7.27;100.00
3444;BME280;1736;52.068;6.968;2022-12-18T06:50:04;102358.00;;;-7.34;100.00
3444;BME280;1736;52.068;6.968;2022-12-18T06:52:31;102341.59;;;-7.39;100.00
3444;BME280;1736;52.068;6.968;2022-12-18T06:54:58;102352.72;;;-7.43;100.00
3444;BME280;1736;52.068;6.968;2022-12-18T06:57:24;102348.41;;;-7.44;100.00
3444;BME280;1736;52.068;6.968;2022-12-18T06:59:51;102333.72;;;-7.48;100.00
3444;BME280;1736;52.068;6.968;2022-12-18T07:02:18;102343.91;;;-7.57;100.00
3444;BME280;1736;52.068;6.968;2022-12-18T07:04:44;102343.84;;;-7.60;100.00
3444;BME280;1736;52.068;6.968;2022-12-18T07:07:12;102333.69;;;-7.51;100.00
3444;BME280;1736;52.068;6.968;2022-12-18T07:09:39;102330.22;;;-7.53;100.00
3444;BME280;1736;52.068;6.968;2022-12-18T07:12:05;102325.91;;;-7.54;100.00
3444;BME280;1736;52.068;6.968;2022-12-18T07:14:33;102320.09;;;-7.41;100.00
3444;BME280;1736;52.068;6.968;2022-12-18T07:16:59;102319.50;;;-7.24;100.00
3444;BME280;1736;52.068;6.968;2022-12-18T07:19:26;102317.75;;;-7.25;100.00
3444;BME280;1736;52.068;6.968;2022-12-18T07:21:53;102312.66;;;-7.20;100.00
3444;BME280;1736;52.068;6.968;2022-12-18T07:24:21;102313.53;;;-7.20;100.00
3444;BME280;1736;52.068;6.968;2022-12-18T07:26:48;102306.59;;;-7.25;100.00
3444;BME280;1736;52.068;6.968;2022-12-18T07:29:14;102303.97;;;-7.27;100.00
3444;BME280;1736;52.068;6.968;2022-12-18T07:31:41;102315.13;;;-7.29;100.00
3444;BME280;1736;52.068;6.968;2022-12-18T07:34:10;102308.13;;;-7.36;100.00
3444;BME280;1736;52.068;6.968;2022-12-18T07:36:37;102310.00;;;-7.28;100.00
3444;BME280;1736;52.068;6.968;2022-12-18T07:39:05;102305.63;;;-7.30;100.00
3444;BME280;1736;52.068;6.968;2022-12-18T07:41:33;102315.13;;;-7.29;100.00
3444;BME280;1736;52.068;6.968;2022-12-18T07:44:00;102315.97;;;-7.29;100.00
3444;BME280;1736;52.068;6.968;2022-12-18T07:46:27;102312.53;;;-7.29;100.00
3444;BME280;1736;52.068;6.968;2022-12-18T07:48:54;102316.91;;;-7.24;100.00
3444;BME280;1736;52.068;6.968;2022-12-18T07:51:20;102317.84;;;-7.19;100.00
3444;BME280;1736;52.068;6.968;2022-12-18T07:53:47;102320.50;;;-7.13;100.00
3444;BME280;1736;52.068;6.968;2022-12-18T07:56:14;102327.47;;;-7.07;100.00
3444;BME280;1736;52.068;6.968;2022-12-18T07:58:41;102319.81;;;-7.01;100.00
3444;BME280;1736;52.068;6.968;2022-12-18T08:01:10;102312.06;;;-7.01;100.00
3444;BME280;1736;52.068;6.968;2022-12-18T08:03:38;102312.22;;;-6.89;100.00
3444;BME280;1736;52.068;6.968;2022-12-18T08:06:07;102321.00;;;-6.75;100.00
3444;BME280;1736;52.068;6.968;2022-12-18T08:08:35;102322.81;;;-6.68;100.00
3444;BME280;1736;52.068;6.968;2022-12-18T08:11:01;102316.84;;;-6.61;100.00
3444;BME280;1736;52.068;6.968;2022-12-18T08:13:28;102310.88;;;-6.57;100.00
3444;BME280;1736;52.068;6.968;2022-12-18T08:15:57;102301.63;;;-6.40;100.00
3444;BME280;1736;52.068;6.968;2022-12-18T08:18:23;102295.75;;;-6.24;100.00
3444;BME280;1736;52.068;6.968;2022-12-18T08:20:50;102289.88;;;-6.07;100.00
3444;BME280;1736;52.068;6.968;2022-12-18T08:23:17;102290.84;;;-5.94;100.00
3444;BME280;1736;52.068;6.968;2022-12-18T08:25:43;102294.31;;;-5.92;100.00
3444;BME280;1736;52.068;6.968;2022-12-18T08:28:10;102288.31;;;-5.90;100.00
3444;BME280;1736;52.068;6.968;2022-12-18T08:30:37;102284.94;;;-5.81;100.00
3444;BME280;1736;52.068;6.968;2022-12-18T08:33:05;102273.78;;;-5.70;100.00
3444;BME280;1736;52.068;6.968;2022-12-18T08:35:34;102277.38;;;-5.51;100.00
3444;BME280;1736;52.068;6.968;2022-12-18T08:38:01;102273.91;;;-5.53;100.00
3444;BME280;1736;52.068;6.968;2022-12-18T08:40:28;102280.88;;;-5.40;100.00
3444;BME280;1736;52.068;6.968;2022-12-18T08:42:54;102281.78;;;-5.32;100.00
3444;BME280;1736;52.068;6.968;2022-12-18T08:45:39;102285.34;;;-5.13;100.00
3444;BME280;1736;52.068;6.968;2022-12-18T08:48:07;102283.59;;;-5.19;100.00
3444;BME280;1736;52.068;6.968;2022-12-18T08:50:33;102275.00;;;-5.18;100.00
3444;BME280;1736;52.068;6.968;2022-12-18T08:53:00;102269.88;;;-5.06;100.00
3444;BME280;1736;52.068;6.968;2022-12-18T08:55:27;102281.09;;;-5.01;99.87
3444;BME280;1736;52.068;6.968;2022-12-18T08:57:54;102278.56;;;-4.92;99.53
3444;BME280;1736;52.068;6.968;2022-12-18T09:00:20;102280.28;;;-4.94;99.35
3444;BME280;1736;52.068;6.968;2022-12-18T09:02:47;102267.34;;;-4.88;99.44
3444;BME280;1736;52.068;6.968;2022-12-18T09:05:15;102266.56;;;-4.69;98.97
3444;BME280;1736;52.068;6.968;2022-12-18T09:07:41;102262.22;;;-4.68;98.73
3444;BME280;1736;52.068;6.968;2022-12-18T09:10:08;102264.84;;;-4.62;98.56
3444;BME280;1736;52.068;6.968;2022-12-18T09:12:35;102273.50;;;-4.56;98.64
3444;BME280;1736;52.068;6.968;2022-12-18T09:15:02;102264.94;;;-4.26;98.47
3444;BME280;1736;52.068;6.968;2022-12-18T09:17:28;102252.81;;;-4.39;97.95
3444;BME280;1736;52.068;6.968;2022-12-18T09:19:55;102258.84;;;-4.43;98.14
3444;BME280;1736;52.068;6.968;2022-12-18T09:22:23;102260.56;;;-4.45;98.18
3444;BME280;1736;52.068;6.968;2022-12-18T09:24:49;102257.16;;;-4.31;98.14
3444;BME280;1736;52.068;6.968;2022-12-18T09:27:16;102262.34;;;-4.31;97.74
3444;BME280;1736;52.068;6.968;2022-12-18T09:29:44;102264.06;;;-4.30;97.88
3444;BME280;1736;52.068;6.968;2022-12-18T09:32:11;102281.34;;;-4.26;97.89
3444;BME280;1736;52.068;6.968;2022-12-18T09:34:37;102270.13;;;-4.17;97.81
3444;BME280;1736;52.068;6.968;2022-12-18T09:37:04;102272.72;;;-4.13;97.64
3444;BME280;1736;52.068;6.968;2022-12-18T09:39:31;102278.78;;;-4.00;97.50
3444;BME280;1736;52.068;6.968;2022-12-18T09:41:58;102274.44;;;-3.97;97.90
3444;BME280;1736;52.068;6.968;2022-12-18T09:44:27;102271.88;;;-3.88;98.16
3444;BME280;1736;52.068;6.968;2022-12-18T09:50:46;102234.69;;;-3.61;98.13
3444;BME280;1736;52.068;6.968;2022-12-18T09:53:17;102238.97;;;-3.53;98.03
3444;BME280;1736;52.068;6.968;2022-12-18T09:55:48;102245.03;;;-3.54;98.51
3444;BME280;1736;52.068;6.968;2022-12-18T09:58:19;102245.03;;;-3.42;98.75
3444;BME280;1736;52.068;6.968;2022-12-18T10:00:51;102248.44;;;-3.28;98.00
3444;BME280;1736;52.068;6.968;2022-12-18T10:03:17;102256.22;;;-3.19;97.25
3444;BME280;1736;52.068;6.968;2022-12-18T10:05:53;102263.09;;;-3.13;96.66
3444;BME280;1736;52.068;6.968;2022-12-18T10:08:24;102263.94;;;-3.05;96.19
3444;BME280;1736;52.068;6.968;2022-12-18T10:11:01;102250.13;;;-3.12;95.95
3444;BME280;1736;52.068;6.968;2022-12-18T10:13:33;102251.88;;;-3.11;96.56
3444;BME280;1736;52.068;6.968;2022-12-18T10:16:09;102250.06;;;-3.00;96.58
3444;BME280;1736;52.068;6.968;2022-12-18T10:19:01;102233.59;;;-2.91;96.55
3444;BME280;1736;52.068;6.968;2022-12-18T10:21:34;102224.00;;;-2.76;95.20
3444;BME280;1736;52.068;6.968;2022-12-18T10:24:11;102234.31;;;-2.67;93.98
3444;BME280;1736;52.068;6.968;2022-12-18T10:26:44;102234.31;;;-2.64;93.62
3444;BME280;1736;52.068;6.968;2022-12-18T10:29:13;102223.91;;;-2.61;92.94
3444;BME280;1736;52.068;6.968;2022-12-18T10:31:40;102217.75;;;-2.45;92.98
3444;BME280;1736;52.068;6.968;2022-12-18T10:34:09;102211.66;;;-2.38;93.04
3444;BME280;1736;52.068;6.968;2022-12-18T10:36:36;102185.66;;;-2.38;93.06
3444;BME280;1736;52.068;6.968;2022-12-18T10:39:15;102182.97;;;-2.29;92.49
3444;BME280;1736;52.068;6.968;2022-12-18T10:41:43;102176.81;;;-2.16;91.39
3444;BME280;1736;52.068;6.968;2022-12-18T10:44:12;102163.72;;;-2.07;89.92
3444;BME280;1736;52.068;6.968;2022-12-18T10:46:41;102157.63;;;-2.06;89.45
3444;BME280;1736;52.068;6.968;2022-12-18T10:49:19;102142.09;;;-2.12;89.21
3444;BME280;1736;52.068;6.968;2022-12-18T10:51:46;102144.59;;;-2.04;88.38
3444;BME280;1736;52.068;6.968;2022-12-18T10:54:15;102149.69;;;-1.91;88.96
3444;BME280;1736;52.068;6.968;2022-12-18T10:56:44;102154.94;;;-1.95;89.17
3444;BME280;1736;52.068;6.968;2022-12-18T10:59:12;102160.09;;;-1.91;88.78
3444;BME280;1736;52.068;6.968;2022-12-18T11:01:50;102152.28;;;-1.91;88.34
3444;BME280;1736;52.068;6.968;2022-12-18T11:04:20;102148.78;;;-1.90;88.70
3444;BME280;1736;52.068;6.968;2022-12-18T11:06:56;102147.81;;;-1.77;88.20
3444;BME280;1736;52.068;6.968;2022-12-18T11:09:24;102136.50;;;-1.73;88.64
3444;BME280;1736;52.068;6.968;2022-12-18T11:11:54;102126.00;;;-1.67;88.20
3444;BME280;1736;52.068;6.968;2022-12-18T11:14:23;102119.91;;;-1.64;87.85
3444;BME280;1736;52.068;6.968;2022-12-18T11:16:53;102128.56;;;-1.61;87.86
3444;BME280;1736;52.068;6.968;2022-12-18T11:19:26;102121.41;;;-1.42;85.95
3444;BME280;1736;52.068;6.968;2022-12-18T11:21:55;102120.53;;;-1.43;85.30
3444;BME280;1736;52.068;6.968;2022-12-18T11:24:27;102120.44;;;-1.37;84.83
3444;BME280;1736;52.068;6.968;2022-12-18T11:26:57;102123.91;;;-1.35;83.91
3444;BME280;1736;52.068;6.968;2022-12-18T11:29:31;102128.94;;;-1.23;82.90
3444;BME280;1736;52.068;6.968;2022-12-18T11:32:31;102121.03;;;-1.15;83.01
3444;BME280;1736;52.068;6.968;2022-12-18T11:35:04;102112.25;;;-1.08;82.45
3444;BME280;1736;52.068;6.968;2022-12-18T11:37:35;102102.72;;;-1.08;82.38
3444;BME280;1736;52.068;6.968;2022-12-18T11:40:09;102095.59;;;-0.98;82.08
3444;BME280;1736;52.068;6.968;2022-12-18T11:42:44;102091.28;;;-1.01;81.76
3444;BME280;1736;52.068;6.968;2022-12-18T11:45:25;102087.78;;;-0.98;82.39
3444;BME280;1736;52.068;6.968;2022-12-18T11:47:57;102079.88;;;-0.91;81.69
3444;BME280;1736;52.068;6.968;2022-12-18T11:50:29;102085.16;;;-0.97;81.43
3444;BME280;1736;52.068;6.968;2022-12-18T11:52:58;102086.03;;;-0.96;80.93
3444;BME280;1736;52.068;6.968;2022-12-18T11:55:30;102083.25;;;-0.86;80.73
3444;BME280;1736;52.068;6.968;2022-12-18T11:58:10;102074.41;;;-0.76;80.25
3444;BME280;1736;52.068;6.968;2022-12-18T12:00:44;102066.69;;;-0.80;79.34
3444;BME280;1736;52.068;6.968;2022-12-18T12:03:41;102066.56;;;-0.73;78.60
3444;BME280;1736;52.068;6.968;2022-12-18T12:06:19;102062.28;;;-0.77;79.05
3444;BME280;1736;52.068;6.968;2022-12-18T12:08:58;102056.88;;;-0.66;77.73
3444;BME280;1736;52.068;6.968;2022-12-18T12:11:35;102061.25;;;-0.67;77.38
3444;BME280;1736;52.068;6.968;2022-12-18T12:14:23;102047.28;;;-0.63;77.60
3444;BME280;1736;52.068;6.968;2022-12-18T12:16:57;102039.31;;;-0.55;76.91
3444;BME280;1736;52.068;6.968;2022-12-18T12:19:35;102047.13;;;-0.54;76.86
3444;BME280;1736;52.068;6.968;2022-12-18T12:22:09;102049.78;;;-0.57;76.98
3444;BME280;1736;52.068;6.968;2022-12-18T12:24:48;102050.56;;;-0.53;76.90
3444;BME280;1736;52.068;6.968;2022-12-18T12:27:20;102040.94;;;-0.47;75.55
3444;BME280;1736;52.068;6.968;2022-12-18T12:30:00;102029.50;;;-0.41;75.95
3444;BME280;1736;52.068;6.968;2022-12-18T12:32:45;102021.53;;;-0.32;74.73
3444;BME280;1736;52.068;6.968;2022-12-18T12:35:26;102020.06;;;-0.47;74.85
3444;BME280;1736;52.068;6.968;2022-12-18T12:38:04;102016.56;;;-0.46;75.34
3444;BME280;1736;52.068;6.968;2022-12-18T12:40:35;102021.44;;;-0.28;74.84
3444;BME280;1736;52.068;6.968;2022-12-18T12:43:07;102017.34;;;-0.42;74.72
3444;BME280;1736;52.068;6.968;2022-12-18T12:45:45;102008.53;;;-0.35;75.36
3444;BME280;1736;52.068;6.968;2022-12-18T12:48:20;102009.44;;;-0.36;74.80
3444;BME280;1736;52.068;6.968;2022-12-18T12:50:49;102010.38;;;-0.39;74.94
3444;BME280;1736;52.068;6.968;2022-12-18T12:53:23;102007.69;;;-0.36;74.40
3444;BME280;1736;52.068;6.968;2022-12-18T12:55:52;102004.19;;;-0.35;74.87
3444;BME280;1736;52.068;6.968;2022-12-18T12:58:27;101998.00;;;-0.29;74.20
3444;BME280;1736;52.068;6.968;2022-12-18T13:01:07;102002.44;;;-0.34;75.01
3444;BME280;1736;52.068;6.968;2022-12-18T13:03:42;101998.69;;;-0.20;74.16
3444;BME280;1736;52.068;6.968;2022-12-18T13:06:16;101988.34;;;-0.24;74.04
3444;BME280;1736;52.068;6.968;2022-12-18T13:08:54;101989.31;;;-0.30;74.41
3444;BME280;1736;52.068;6.968;2022-12-18T13:11:45;101989.16;;;-0.22;73.43
3444;BME280;1736;52.068;6.968;2022-12-18T13:14:31;101983.16;;;-0.26;73.97
3444;BME280;1736;52.068;6.968;2022-12-18T13:17:29;101986.53;;;-0.21;73.28
3444;BME280;1736;52.068;6.968;2022-12-18T13:20:10;101981.31;;;-0.21;73.88
3444;BME280;1736;52.068;6.968;2022-12-18T13:22:41;101986.59;;;-0.24;73.91